sensor_id;sensor_type;location;lat;lon;timestamp;P1;durP1;ratioP1;P2;durP2;ratioP2
44728;SDS011;30457;53.590;9.922;2023-03-01T00:01:14;7.65;;;2.95;;
44728;SDS011;30457;53.590;9.922;2023-03-01T00:05:44;5.10;;;2.45;;
44728;SDS011;30457;53.590;9.922;2023-03-01T00:10:10;10.38;;;2.90;;
44728;SDS011;30457;53.590;9.922;2023-03-01T00:14:36;6.35;;;2.75;;
44728;SDS011;30457;53.590;9.922;2023-03-01T00:19:02;8.98;;;3.25;;
44728;SDS011;30457;53.590;9.922;2023-03-01T00:23:27;4.20;;;2.78;;
44728;SDS011;30457;53.590;9.922;2023-03-01T00:27:53;5.88;;;3.72;;
44728;SDS011;30457;53.590;9.922;2023-03-01T00:32:19;4.18;;;2.33;;
44728;SDS011;30457;53.590;9.922;2023-03-01T00:36:44;4.75;;;2.60;;
44728;SDS011;30457;53.590;9.922;2023-03-01T00:41:11;7.40;;;2.42;;
44728;SDS011;30457;53.590;9.922;2023-03-01T00:45:40;6.15;;;3.15;;
44728;SDS011;30457;53.590;9.922;2023-03-01T00:50:06;7.20;;;2.80;;
44728;SDS011;30457;53.590;9.922;2023-03-01T00:54:32;4.05;;;2.38;;
44728;SDS011;30457;53.590;9.922;2023-03-01T00:58:58;5.28;;;3.28;;
44728;SDS011;30457;53.590;9.922;2023-03-01T01:03:23;6.10;;;2.78;;
44728;SDS011;30457;53.590;9.922;2023-03-01T01:07:52;10.80;;;4.03;;
44728;SDS011;30457;53.590;9.922;2023-03-01T01:12:17;9.07;;;2.90;;
44728;SDS011;30457;53.590;9.922;2023-03-01T01:16:43;5.82;;;3.85;;
44728;SDS011;30457;53.590;9.922;2023-03-01T01:21:10;7.85;;;3.30;;
44728;SDS011;30457;53.590;9.922;2023-03-01T01:25:37;4.20;;;2.50;;
44728;SDS011;30457;53.590;9.922;2023-03-01T01:30:03;4.55;;;3.35;;
44728;SDS011;30457;53.590;9.922;2023-03-01T01:34:29;6.65;;;3.78;;
44728;SDS011;30457;53.590;9.922;2023-03-01T01:38:55;5.63;;;3.55;;
44728;SDS011;30457;53.590;9.922;2023-03-01T01:43:22;5.05;;;3.38;;
44728;SDS011;30457;53.590;9.922;2023-03-01T01:48:06;11.45;;;2.97;;
44728;SDS011;30457;53.590;9.922;2023-03-01T01:52:36;5.63;;;3.10;;
44728;SDS011;30457;53.590;9.922;2023-03-01T01:57:04;7.97;;;3.55;;
44728;SDS011;30457;53.590;9.922;2023-03-01T02:01:34;6.75;;;3.28;;
44728;SDS011;30457;53.590;9.922;2023-03-01T02:06:06;8.02;;;4.45;;
44728;SDS011;30457;53.590;9.922;2023-03-01T02:10:54;6.60;;;4.13;;
44728;SDS011;30457;53.590;9.922;2023-03-01T02:15:21;7.38;;;4.15;;
44728;SDS011;30457;53.590;9.922;2023-03-01T02:19:59;8.55;;;3.55;;
44728;SDS011;30457;53.590;9.922;2023-03-01T02:29:30;5.80;;;3.72;;
44728;SDS011;30457;53.590;9.922;2023-03-01T02:33:56;6.55;;;3.70;;
44728;SDS011;30457;53.590;9.922;2023-03-01T02:38:23;8.93;;;4.05;;
44728;SDS011;30457;53.590;9.922;2023-03-01T02:42:50;6.40;;;3.80;;
44728;SDS011;30457;53.590;9.922;2023-03-01T02:47:19;6.20;;;3.92;;
44728;SDS011;30457;53.590;9.922;2023-03-01T02:51:48;7.85;;;3.22;;
44728;SDS011;30457;53.590;9.922;2023-03-01T02:56:39;4.97;;;3.25;;
44728;SDS011;30457;53.590;9.922;2023-03-01T03:01:05;7.35;;;3.38;;
44728;SDS011;30457;53.590;9.922;2023-03-01T03:05:31;12.52;;;3.90;;
44728;SDS011;30457;53.590;9.922;2023-03-01T03:09:57;7.82;;;4.05;;
44728;SDS011;30457;53.590;9.922;2023-03-01T03:14:22;11.45;;;4.13;;
44728;SDS011;30457;53.590;9.922;2023-03-01T03:18:48;4.30;;;3.25;;
44728;SDS011;30457;53.590;9.922;2023-03-01T03:23:14;8.25;;;3.75;;
44728;SDS011;30457;53.590;9.922;2023-03-01T03:27:40;4.22;;;3.20;;
44728;SDS011;30457;53.590;9.922;2023-03-01T03:32:07;6.95;;;3.75;;
44728;SDS011;30457;53.590;9.922;2023-03-01T03:36:33;6.28;;;3.30;;
44728;SDS011;30457;53.590;9.922;2023-03-01T03:41:00;8.88;;;3.70;;
44728;SDS011;30457;53.590;9.922;2023-03-01T03:45:28;8.43;;;3.72;;
44728;SDS011;30457;53.590;9.922;2023-03-01T03:49:54;5.75;;;3.45;;
44728;SDS011;30457;53.590;9.922;2023-03-01T03:54:20;7.05;;;3.58;;
44728;SDS011;30457;53.590;9.922;2023-03-01T03:58:45;7.82;;;4.32;;
44728;SDS011;30457;53.590;9.922;2023-03-01T04:03:11;8.07;;;4.43;;
44728;SDS011;30457;53.590;9.922;2023-03-01T04:07:38;5.68;;;4.20;;
44728;SDS011;30457;53.590;9.922;2023-03-01T04:12:04;20.60;;;6.05;;
44728;SDS011;30457;53.590;9.922;2023-03-01T04:16:29;10.35;;;4.25;;
44728;SDS011;30457;53.590;9.922;2023-03-01T04:20:55;8.07;;;4.13;;
44728;SDS011;30457;53.590;9.922;2023-03-01T04:25:21;8.52;;;3.83;;
44728;SDS011;30457;53.590;9.922;2023-03-01T04:29:50;5.93;;;3.30;;
44728;SDS011;30457;53.590;9.922;2023-03-01T04:34:16;6.15;;;4.22;;
44728;SDS011;30457;53.590;9.922;2023-03-01T04:38:42;6.78;;;3.92;;
44728;SDS011;30457;53.590;9.922;2023-03-01T04:43:12;4.75;;;3.00;;
44728;SDS011;30457;53.590;9.922;2023-03-01T04:47:41;4.72;;;3.35;;
44728;SDS011;30457;53.590;9.922;2023-03-01T04:52:09;11.63;;;4.10;;
44728;SDS011;30457;53.590;9.922;2023-03-01T04:56:34;5.18;;;3.17;;
44728;SDS011;30457;53.590;9.922;2023-03-01T05:01:00;5.65;;;3.47;;
44728;SDS011;30457;53.590;9.922;2023-03-01T05:05:26;4.68;;;2.88;;
44728;SDS011;30457;53.590;9.922;2023-03-01T05:09:54;5.22;;;3.83;;
44728;SDS011;30457;53.590;9.922;2023-03-01T05:14:19;7.65;;;2.95;;
44728;SDS011;30457;53.590;9.922;2023-03-01T05:18:45;5.13;;;2.78;;
44728;SDS011;30457;53.590;9.922;2023-03-01T05:23:11;5.18;;;3.80;;
44728;SDS011;30457;53.590;9.922;2023-03-01T05:27:36;8.35;;;3.53;;
44728;SDS011;30457;53.590;9.922;2023-03-01T05:32:02;5.47;;;3.42;;
44728;SDS011;30457;53.590;9.922;2023-03-01T05:36:28;5.45;;;3.10;;
44728;SDS011;30457;53.590;9.922;2023-03-01T05:40:53;6.45;;;3.50;;
44728;SDS011;30457;53.590;9.922;2023-03-01T05:45:19;10.90;;;3.00;;
44728;SDS011;30457;53.590;9.922;2023-03-01T05:49:46;7.43;;;3.20;;
44728;SDS011;30457;53.590;9.922;2023-03-01T05:54:11;15.45;;;2.90;;
44728;SDS011;30457;53.590;9.922;2023-03-01T05:58:37;13.38;;;3.97;;
44728;SDS011;30457;53.590;9.922;2023-03-01T06:03:03;14.20;;;3.15;;
44728;SDS011;30457;53.590;9.922;2023-03-01T06:07:29;4.57;;;2.88;;
44728;SDS011;30457;53.590;9.922;2023-03-01T06:11:54;8.07;;;2.88;;
44728;SDS011;30457;53.590;9.922;2023-03-01T06:16:20;4.13;;;2.65;;
44728;SDS011;30457;53.590;9.922;2023-03-01T06:20:51;3.97;;;2.35;;
44728;SDS011;30457;53.590;9.922;2023-03-01T06:25:20;9.57;;;2.65;;
44728;SDS011;30457;53.590;9.922;2023-03-01T06:29:46;10.00;;;3.33;;
44728;SDS011;30457;53.590;9.922;2023-03-01T06:34:12;8.38;;;2.92;;
44728;SDS011;30457;53.590;9.922;2023-03-01T06:38:38;9.45;;;2.80;;
44728;SDS011;30457;53.590;9.922;2023-03-01T06:43:05;14.20;;;3.95;;
44728;SDS011;30457;53.590;9.922;2023-03-01T06:47:32;10.32;;;3.13;;
44728;SDS011;30457;53.590;9.922;2023-03-01T06:51:58;7.93;;;3.00;;
44728;SDS011;30457;53.590;9.922;2023-03-01T06:56:24;5.63;;;2.75;;
44728;SDS011;30457;53.590;9.922;2023-03-01T07:00:49;8.38;;;3.33;;
44728;SDS011;30457;53.590;9.922;2023-03-01T07:05:15;6.15;;;3.70;;
44728;SDS011;30457;53.590;9.922;2023-03-01T07:09:44;12.68;;;3.38;;
44728;SDS011;30457;53.590;9.922;2023-03-01T07:14:11;12.85;;;3.67;;
44728;SDS011;30457;53.590;9.922;2023-03-01T07:18:36;4.72;;;2.97;;
44728;SDS011;30457;53.590;9.922;2023-03-01T07:23:02;9.30;;;3.70;;
44728;SDS011;30457;53.590;9.922;2023-03-01T07:27:27;6.25;;;3.38;;
44728;SDS011;30457;53.590;9.922;2023-03-01T07:31:53;5.80;;;4.03;;
44728;SDS011;30457;53.590;9.922;2023-03-01T07:36:19;6.63;;;3.63;;
44728;SDS011;30457;53.590;9.922;2023-03-01T07:40:44;8.50;;;3.65;;
44728;SDS011;30457;53.590;9.922;2023-03-01T07:45:10;7.00;;;4.20;;
44728;SDS011;30457;53.590;9.922;2023-03-01T07:49:36;8.68;;;5.18;;
44728;SDS011;30457;53.590;9.922;2023-03-01T07:54:01;8.80;;;4.80;;
44728;SDS011;30457;53.590;9.922;2023-03-01T07:58:27;11.35;;;6.30;;
44728;SDS011;30457;53.590;9.922;2023-03-01T08:02:53;8.07;;;5.40;;
44728;SDS011;30457;53.590;9.922;2023-03-01T08:07:18;10.70;;;6.70;;
44728;SDS011;30457;53.590;9.922;2023-03-01T08:11:44;11.73;;;6.75;;
44728;SDS011;30457;53.590;9.922;2023-03-01T08:16:10;9.32;;;6.40;;
44728;SDS011;30457;53.590;9.922;2023-03-01T08:20:37;12.52;;;7.05;;
44728;SDS011;30457;53.590;9.922;2023-03-01T08:25:03;14.85;;;7.22;;
44728;SDS011;30457;53.590;9.922;2023-03-01T08:29:32;13.10;;;6.50;;
44728;SDS011;30457;53.590;9.922;2023-03-01T08:34:00;12.55;;;6.90;;
44728;SDS011;30457;53.590;9.922;2023-03-01T08:38:27;23.45;;;7.30;;
44728;SDS011;30457;53.590;9.922;2023-03-01T08:42:52;11.57;;;7.32;;
44728;SDS011;30457;53.590;9.922;2023-03-01T08:47:18;14.43;;;7.82;;
44728;SDS011;30457;53.590;9.922;2023-03-01T08:51:44;12.50;;;7.60;;
44728;SDS011;30457;53.590;9.922;2023-03-01T08:56:11;13.90;;;8.35;;
44728;SDS011;30457;53.590;9.922;2023-03-01T09:00:37;12.73;;;8.35;;
44728;SDS011;30457;53.590;9.922;2023-03-01T09:05:03;11.82;;;7.30;;
44728;SDS011;30457;53.590;9.922;2023-03-01T09:09:28;14.70;;;7.30;;
44728;SDS011;30457;53.590;9.922;2023-03-01T09:13:54;11.75;;;7.15;;
44728;SDS011;30457;53.590;9.922;2023-03-01T09:18:20;12.07;;;8.10;;
44728;SDS011;30457;53.590;9.922;2023-03-01T09:22:45;10.63;;;6.93;;
44728;SDS011;30457;53.590;9.922;2023-03-01T09:27:11;17.02;;;8.52;;
44728;SDS011;30457;53.590;9.922;2023-03-01T09:31:39;14.10;;;8.32;;
44728;SDS011;30457;53.590;9.922;2023-03-01T09:36:06;11.45;;;7.55;;
44728;SDS011;30457;53.590;9.922;2023-03-01T09:40:35;14.10;;;7.55;;
44728;SDS011;30457;53.590;9.922;2023-03-01T09:45:03;12.50;;;8.02;;
44728;SDS011;30457;53.590;9.922;2023-03-01T09:49:31;12.18;;;7.82;;
44728;SDS011;30457;53.590;9.922;2023-03-01T09:54:03;13.57;;;7.43;;
44728;SDS011;30457;53.590;9.922;2023-03-01T09:58:35;16.17;;;8.57;;
44728;SDS011;30457;53.590;9.922;2023-03-01T10:03:19;10.43;;;7.38;;
44728;SDS011;30457;53.590;9.922;2023-03-01T10:08:02;11.40;;;7.38;;
44728;SDS011;30457;53.590;9.922;2023-03-01T10:12:50;14.55;;;7.63;;
44728;SDS011;30457;53.590;9.922;2023-03-01T10:31:44;14.57;;;8.15;;
44728;SDS011;30457;53.590;9.922;2023-03-01T10:36:14;12.82;;;6.80;;
44728;SDS011;30457;53.590;9.922;2023-03-01T10:45:36;10.90;;;6.05;;
44728;SDS011;30457;53.590;9.922;2023-03-01T10:50:03;10.25;;;5.65;;
44728;SDS011;30457;53.590;9.922;2023-03-01T10:54:31;9.73;;;6.10;;
44728;SDS011;30457;53.590;9.922;2023-03-01T10:59:02;10.63;;;5.55;;
44728;SDS011;30457;53.590;9.922;2023-03-01T11:03:30;7.68;;;5.63;;
44728;SDS011;30457;53.590;9.922;2023-03-01T11:07:58;9.02;;;4.95;;
44728;SDS011;30457;53.590;9.922;2023-03-01T11:12:25;14.88;;;5.65;;
44728;SDS011;30457;53.590;9.922;2023-03-01T11:17:11;9.93;;;5.65;;
44728;SDS011;30457;53.590;9.922;2023-03-01T11:26:38;8.23;;;4.73;;
44728;SDS011;30457;53.590;9.922;2023-03-01T11:31:10;8.10;;;4.95;;
44728;SDS011;30457;53.590;9.922;2023-03-01T11:35:41;11.05;;;5.32;;
44728;SDS011;30457;53.590;9.922;2023-03-01T11:40:16;7.22;;;4.25;;
44728;SDS011;30457;53.590;9.922;2023-03-01T11:54:27;8.07;;;4.55;;
44728;SDS011;30457;53.590;9.922;2023-03-01T12:08:59;6.45;;;3.47;;
44728;SDS011;30457;53.590;9.922;2023-03-01T12:18:30;6.93;;;3.70;;
44728;SDS011;30457;53.590;9.922;2023-03-01T12:38:14;3.35;;;2.83;;
44728;SDS011;30457;53.590;9.922;2023-03-01T12:48:08;7.18;;;3.47;;
44728;SDS011;30457;53.590;9.922;2023-03-01T12:52:53;5.22;;;4.03;;
44728;SDS011;30457;53.590;9.922;2023-03-01T12:57:24;4.85;;;3.85;;
44728;SDS011;30457;53.590;9.922;2023-03-01T13:02:04;6.72;;;3.65;;
44728;SDS011;30457;53.590;9.922;2023-03-01T13:11:43;5.38;;;3.50;;
44728;SDS011;30457;53.590;9.922;2023-03-01T13:16:27;7.18;;;3.65;;
44728;SDS011;30457;53.590;9.922;2023-03-01T13:21:05;11.47;;;6.47;;
44728;SDS011;30457;53.590;9.922;2023-03-01T13:25:30;5.18;;;3.78;;
44728;SDS011;30457;53.590;9.922;2023-03-01T13:29:57;7.70;;;4.13;;
44728;SDS011;30457;53.590;9.922;2023-03-01T13:34:41;5.13;;;3.72;;
44728;SDS011;30457;53.590;9.922;2023-03-01T13:39:27;10.43;;;4.13;;
44728;SDS011;30457;53.590;9.922;2023-03-01T13:48:56;4.97;;;3.70;;
44728;SDS011;30457;53.590;9.922;2023-03-01T13:53:23;7.47;;;4.03;;
44728;SDS011;30457;53.590;9.922;2023-03-01T13:57:53;5.47;;;3.00;;
44728;SDS011;30457;53.590;9.922;2023-03-01T14:02:24;5.20;;;3.65;;
44728;SDS011;30457;53.590;9.922;2023-03-01T14:06:50;7.20;;;4.00;;
44728;SDS011;30457;53.590;9.922;2023-03-01T14:21:12;4.78;;;3.13;;
44728;SDS011;30457;53.590;9.922;2023-03-01T14:25:51;4.82;;;3.20;;
44728;SDS011;30457;53.590;9.922;2023-03-01T14:30:22;7.28;;;2.92;;
44728;SDS011;30457;53.590;9.922;2023-03-01T14:34:51;4.72;;;2.63;;
44728;SDS011;30457;53.590;9.922;2023-03-01T14:39:18;5.15;;;3.10;;
44728;SDS011;30457;53.590;9.922;2023-03-01T14:43:50;4.10;;;2.80;;
44728;SDS011;30457;53.590;9.922;2023-03-01T14:48:18;4.53;;;2.90;;
44728;SDS011;30457;53.590;9.922;2023-03-01T14:52:45;5.55;;;3.05;;
44728;SDS011;30457;53.590;9.922;2023-03-01T14:57:18;5.97;;;3.88;;
44728;SDS011;30457;53.590;9.922;2023-03-01T15:01:46;8.50;;;3.17;;
44728;SDS011;30457;53.590;9.922;2023-03-01T15:06:17;6.75;;;3.80;;
44728;SDS011;30457;53.590;9.922;2023-03-01T15:10:56;5.10;;;3.17;;
44728;SDS011;30457;53.590;9.922;2023-03-01T15:19:54;7.55;;;3.92;;
44728;SDS011;30457;53.590;9.922;2023-03-01T15:24:22;8.02;;;4.45;;
44728;SDS011;30457;53.590;9.922;2023-03-01T15:28:50;8.32;;;4.47;;
44728;SDS011;30457;53.590;9.922;2023-03-01T15:37:52;8.55;;;5.10;;
44728;SDS011;30457;53.590;9.922;2023-03-01T15:46:52;8.18;;;5.15;;
44728;SDS011;30457;53.590;9.922;2023-03-01T15:51:20;7.13;;;4.63;;
44728;SDS011;30457;53.590;9.922;2023-03-01T15:55:48;10.70;;;5.40;;
44728;SDS011;30457;53.590;9.922;2023-03-01T16:00:15;10.25;;;5.60;;
44728;SDS011;30457;53.590;9.922;2023-03-01T16:04:42;11.32;;;5.68;;
44728;SDS011;30457;53.590;9.922;2023-03-01T16:09:08;14.38;;;6.20;;
44728;SDS011;30457;53.590;9.922;2023-03-01T16:13:33;13.93;;;6.95;;
44728;SDS011;30457;53.590;9.922;2023-03-01T16:17:59;9.45;;;5.20;;
44728;SDS011;30457;53.590;9.922;2023-03-01T16:22:24;11.00;;;6.13;;
44728;SDS011;30457;53.590;9.922;2023-03-01T16:26:52;8.20;;;5.43;;
44728;SDS011;30457;53.590;9.922;2023-03-01T16:31:18;8.68;;;5.50;;
44728;SDS011;30457;53.590;9.922;2023-03-01T16:35:44;7.13;;;4.47;;
44728;SDS011;30457;53.590;9.922;2023-03-01T16:40:17;10.40;;;5.22;;
44728;SDS011;30457;53.590;9.922;2023-03-01T16:44:53;9.63;;;5.13;;
44728;SDS011;30457;53.590;9.922;2023-03-01T16:49:20;6.88;;;4.75;;
44728;SDS011;30457;53.590;9.922;2023-03-01T16:53:46;8.55;;;4.97;;
44728;SDS011;30457;53.590;9.922;2023-03-01T16:58:11;7.25;;;4.80;;
44728;SDS011;30457;53.590;9.922;2023-03-01T17:02:37;5.95;;;4.00;;
44728;SDS011;30457;53.590;9.922;2023-03-01T17:07:03;7.68;;;5.10;;
44728;SDS011;30457;53.590;9.922;2023-03-01T17:11:29;5.53;;;3.75;;
44728;SDS011;30457;53.590;9.922;2023-03-01T17:15:55;6.28;;;4.53;;
44728;SDS011;30457;53.590;9.922;2023-03-01T17:20:20;6.20;;;3.72;;
44728;SDS011;30457;53.590;9.922;2023-03-01T17:24:46;6.80;;;4.40;;
44728;SDS011;30457;53.590;9.922;2023-03-01T17:29:12;6.80;;;4.28;;
44728;SDS011;30457;53.590;9.922;2023-03-01T17:33:37;9.65;;;4.70;;
44728;SDS011;30457;53.590;9.922;2023-03-01T17:38:04;6.72;;;4.60;;
44728;SDS011;30457;53.590;9.922;2023-03-01T17:42:30;7.15;;;4.53;;
44728;SDS011;30457;53.590;9.922;2023-03-01T17:46:56;7.88;;;4.72;;
44728;SDS011;30457;53.590;9.922;2023-03-01T17:51:22;7.80;;;4.95;;
44728;SDS011;30457;53.590;9.922;2023-03-01T17:55:48;7.03;;;5.03;;
44728;SDS011;30457;53.590;9.922;2023-03-01T18:00:18;10.20;;;5.22;;
44728;SDS011;30457;53.590;9.922;2023-03-01T18:04:43;7.00;;;4.75;;
44728;SDS011;30457;53.590;9.922;2023-03-01T18:09:09;8.80;;;5.10;;
44728;SDS011;30457;53.590;9.922;2023-03-01T18:13:36;10.98;;;6.55;;
44728;SDS011;30457;53.590;9.922;2023-03-01T18:18:02;8.57;;;5.53;;
44728;SDS011;30457;53.590;9.922;2023-03-01T18:22:28;10.85;;;6.82;;
44728;SDS011;30457;53.590;9.922;2023-03-01T18:26:54;9.35;;;6.50;;
44728;SDS011;30457;53.590;9.922;2023-03-01T18:31:20;10.27;;;6.18;;
44728;SDS011;30457;53.590;9.922;2023-03-01T18:35:46;9.43;;;5.60;;
44728;SDS011;30457;53.590;9.922;2023-03-01T18:40:14;11.00;;;6.55;;
44728;SDS011;30457;53.590;9.922;2023-03-01T18:44:39;10.68;;;7.20;;
44728;SDS011;30457;53.590;9.922;2023-03-01T18:49:05;11.93;;;6.85;;
44728;SDS011;30457;53.590;9.922;2023-03-01T18:53:32;10.48;;;7.03;;
44728;SDS011;30457;53.590;9.922;2023-03-01T18:57:57;13.00;;;7.53;;
44728;SDS011;30457;53.590;9.922;2023-03-01T19:02:23;17.48;;;8.90;;
44728;SDS011;30457;53.590;9.922;2023-03-01T19:06:48;14.85;;;8.63;;
44728;SDS011;30457;53.590;9.922;2023-03-01T19:11:14;14.88;;;8.40;;
44728;SDS011;30457;53.590;9.922;2023-03-01T19:15:43;14.65;;;8.98;;
44728;SDS011;30457;53.590;9.922;2023-03-01T19:20:08;14.63;;;8.55;;
44728;SDS011;30457;53.590;9.922;2023-03-01T19:24:35;14.23;;;9.63;;
44728;SDS011;30457;53.590;9.922;2023-03-01T19:29:00;13.40;;;8.23;;
44728;SDS011;30457;53.590;9.922;2023-03-01T19:33:28;17.80;;;9.45;;
44728;SDS011;30457;53.590;9.922;2023-03-01T19:37:55;14.25;;;8.40;;
44728;SDS011;30457;53.590;9.922;2023-03-01T19:42:20;17.83;;;9.77;;
44728;SDS011;30457;53.590;9.922;2023-03-01T19:46:51;15.48;;;8.50;;
44728;SDS011;30457;53.590;9.922;2023-03-01T19:51:17;16.48;;;9.30;;
44728;SDS011;30457;53.590;9.922;2023-03-01T19:55:43;16.08;;;9.10;;
44728;SDS011;30457;53.590;9.922;2023-03-01T20:00:09;14.75;;;8.25;;
44728;SDS011;30457;53.590;9.922;2023-03-01T20:04:38;16.75;;;9.27;;
44728;SDS011;30457;53.590;9.922;2023-03-01T20:09:04;18.25;;;8.73;;
44728;SDS011;30457;53.590;9.922;2023-03-01T20:13:30;17.85;;;9.27;;
44728;SDS011;30457;53.590;9.922;2023-03-01T20:17:56;15.95;;;9.50;;
44728;SDS011;30457;53.590;9.922;2023-03-01T20:22:22;17.33;;;9.77;;
44728;SDS011;30457;53.590;9.922;2023-03-01T20:26:47;15.13;;;8.70;;
44728;SDS011;30457;53.590;9.922;2023-03-01T20:31:13;16.85;;;9.40;;
44728;SDS011;30457;53.590;9.922;2023-03-01T20:35:41;16.88;;;9.15;;
44728;SDS011;30457;53.590;9.922;2023-03-01T20:40:07;12.38;;;7.88;;
44728;SDS011;30457;53.590;9.922;2023-03-01T20:44:33;16.02;;;9.35;;
44728;SDS011;30457;53.590;9.922;2023-03-01T20:48:59;13.82;;;8.20;;
44728;SDS011;30457;53.590;9.922;2023-03-01T20:53:25;15.30;;;8.93;;
44728;SDS011;30457;53.590;9.922;2023-03-01T20:57:52;14.25;;;8.68;;
44728;SDS011;30457;53.590;9.922;2023-03-01T21:02:17;18.50;;;8.45;;
44728;SDS011;30457;53.590;9.922;2023-03-01T21:06:43;16.95;;;9.77;;
44728;SDS011;30457;53.590;9.922;2023-03-01T21:11:09;15.77;;;8.75;;
44728;SDS011;30457;53.590;9.922;2023-03-01T21:15:35;17.73;;;9.27;;
44728;SDS011;30457;53.590;9.922;2023-03-01T21:20:00;22.45;;;9.90;;
44728;SDS011;30457;53.590;9.922;2023-03-01T21:24:26;17.33;;;8.93;;
44728;SDS011;30457;53.590;9.922;2023-03-01T21:28:56;16.88;;;10.25;;
44728;SDS011;30457;53.590;9.922;2023-03-01T21:33:24;13.27;;;7.75;;
44728;SDS011;30457;53.590;9.922;2023-03-01T21:37:49;16.95;;;8.73;;
44728;SDS011;30457;53.590;9.922;2023-03-01T21:42:15;18.33;;;8.80;;
44728;SDS011;30457;53.590;9.922;2023-03-01T21:46:40;18.13;;;8.73;;
44728;SDS011;30457;53.590;9.922;2023-03-01T21:51:06;15.30;;;8.57;;
44728;SDS011;30457;53.590;9.922;2023-03-01T21:55:33;15.60;;;8.73;;
44728;SDS011;30457;53.590;9.922;2023-03-01T21:59:59;17.50;;;9.13;;
44728;SDS011;30457;53.590;9.922;2023-03-01T22:04:24;12.02;;;6.88;;
44728;SDS011;30457;53.590;9.922;2023-03-01T22:08:51;16.95;;;6.95;;
44728;SDS011;30457;53.590;9.922;2023-03-01T22:13:21;13.00;;;8.10;;
44728;SDS011;30457;53.590;9.922;2023-03-01T22:17:47;13.60;;;7.95;;
44728;SDS011;30457;53.590;9.922;2023-03-01T22:22:13;14.43;;;7.25;;
44728;SDS011;30457;53.590;9.922;2023-03-01T22:26:39;12.45;;;7.38;;
44728;SDS011;30457;53.590;9.922;2023-03-01T22:31:06;13.48;;;7.78;;
44728;SDS011;30457;53.590;9.922;2023-03-01T22:35:32;10.20;;;6.75;;
44728;SDS011;30457;53.590;9.922;2023-03-01T22:39:57;12.07;;;7.05;;
44728;SDS011;30457;53.590;9.922;2023-03-01T22:44:23;13.10;;;6.88;;
44728;SDS011;30457;53.590;9.922;2023-03-01T22:48:49;11.57;;;6.85;;
44728;SDS011;30457;53.590;9.922;2023-03-01T22:53:15;12.52;;;6.32;;
44728;SDS011;30457;53.590;9.922;2023-03-01T22:57:42;11.02;;;6.15;;
44728;SDS011;30457;53.590;9.922;2023-03-01T23:02:07;16.65;;;7.47;;
44728;SDS011;30457;53.590;9.922;2023-03-01T23:06:33;11.15;;;6.25;;
44728;SDS011;30457;53.590;9.922;2023-03-01T23:10:58;10.70;;;6.18;;
44728;SDS011;30457;53.590;9.922;2023-03-01T23:15:24;13.13;;;6.90;;
44728;SDS011;30457;53.590;9.922;2023-03-01T23:19:50;13.05;;;6.85;;
44728;SDS011;30457;53.590;9.922;2023-03-01T23:24:16;11.75;;;6.47;;
44728;SDS011;30457;53.590;9.922;2023-03-01T23:28:42;10.50;;;6.00;;
44728;SDS011;30457;53.590;9.922;2023-03-01T23:33:08;13.90;;;6.72;;
44728;SDS011;30457;53.590;9.922;2023-03-01T23:37:34;11.02;;;6.65;;
44728;SDS011;30457;53.590;9.922;2023-03-01T23:42:00;13.00;;;7.32;;
44728;SDS011;30457;53.590;9.922;2023-03-01T23:46:30;10.57;;;6.25;;
44728;SDS011;30457;53.590;9.922;2023-03-01T23:51:01;10.57;;;6.45;;
44728;SDS011;30457;53.590;9.922;2023-03-01T23:55:28;9.50;;;6.25;;
44728;SDS011;30457;53.590;9.922;2023-03-01T23:59:54;9.82;;;5.75;;
